Terminal Aerodrome Forecast
Issued by NWS

Home | Current Version | Previous Version | Text Only | Print | Product List | Glossary On
Versions: 1 2 3 4 5 6 7 8 9 10 11 12
360
FTUS44 KLZK 270539
TAFPBF
TAF
KPBF 270539Z 2706/2806 21006KT P6SM FEW060 BKN250
     FM271500 22009KT P6SM SCT060 SCT250=

USA.gov is the U.S. government's official web portal to all federal, state and local government web resources and services.